Time;durP1;ratioP1;P1;durP2;ratioP2;P2;SDS_P1;SDS_P2;PMS_P1;PMS_P2;Temp;Humidity;BMP_temperature;BMP_pressure;BME280_temperature;BME280_humidity;BME280_pressure;Samples;Min_cycle;Max_cycle;Signal;HPM_P1;HPM_P2
2021/04/22 00:01:24;;;;;;;11.18;8.77;;;10.70;1.00;;;;;;4993467;28;20026;-70
2021/04/22 00:03:50;;;;;;;8.18;7.30;;;10.70;1.00;;;;;;4992348;28;20030;-71
2021/04/22 00:06:15;;;;;;;8.80;7.72;;;10.70;1.00;;;;;;4993828;28;20030;-70
2021/04/22 00:08:41;;;;;;;8.73;7.93;;;10.80;1.00;;;;;;4993851;28;20057;-71
2021/04/22 00:11:07;;;;;;;8.38;7.47;;;10.70;1.00;;;;;;4994013;28;20030;-70
2021/04/22 00:13:32;;;;;;;9.23;8.30;;;10.70;1.00;;;;;;5001360;28;20044;-70
2021/04/22 00:16:00;;;;;;;8.98;7.13;;;10.80;1.00;;;;;;5009767;28;20026;-70
2021/04/22 00:18:25;;;;;;;8.70;7.65;;;10.80;1.00;;;;;;5008201;28;20023;-70
2021/04/22 00:20:51;;;;;;;8.73;7.82;;;10.90;1.00;;;;;;5007418;28;20026;-70
2021/04/22 00:23:17;;;;;;;8.43;7.63;;;10.90;1.00;;;;;;5007519;28;20087;-71
2021/04/22 00:25:44;;;;;;;9.00;7.88;;;10.90;1.00;;;;;;5004985;28;20026;-71
2021/04/22 00:28:11;;;;;;;13.20;9.77;;;11.00;99.90;;;;;;5000273;28;20398;-71
2021/04/22 00:30:38;;;;;;;10.88;8.98;;;11.00;99.90;;;;;;4994122;28;20054;-69
2021/04/22 00:33:15;;;;;;;11.20;9.35;;;11.10;99.90;;;;;;4994264;28;20093;-70
2021/04/22 00:35:42;;;;;;;10.23;9.20;;;11.20;99.90;;;;;;4994476;28;20088;-71
2021/04/22 00:38:08;;;;;;;10.73;9.45;;;11.30;99.90;;;;;;4993907;28;20026;-71
2021/04/22 00:40:35;;;;;;;10.45;8.85;;;11.40;99.90;;;;;;4995392;28;20472;-71
2021/04/22 00:43:03;;;;;;;10.27;8.80;;;11.40;99.90;;;;;;4996075;28;20034;-70
2021/04/22 00:45:28;;;;;;;12.40;9.23;;;11.40;99.90;;;;;;5013279;28;20026;-69
2021/04/22 00:47:54;;;;;;;14.05;9.40;;;11.50;99.90;;;;;;5014957;28;20481;-70
2021/04/22 00:50:26;;;;;;;12.88;10.07;;;11.60;99.90;;;;;;4997045;28;20037;-70
2021/04/22 00:52:54;;;;;;;12.80;9.57;;;11.70;99.90;;;;;;4993675;28;20069;-70
2021/04/22 00:55:19;;;;;;;11.05;9.93;;;11.70;99.90;;;;;;4992690;28;20030;-71
2021/04/22 00:57:45;;;;;;;13.10;11.07;;;11.70;99.90;;;;;;4997477;28;20029;-71
2021/04/22 01:00:14;;;;;;;12.73;10.75;;;11.70;1.00;;;;;;5008723;28;20041;-71
2021/04/22 01:02:40;;;;;;;13.98;11.35;;;11.60;52.40;;;;;;5019359;28;20030;-70
2021/04/22 01:05:09;;;;;;;12.65;11.35;;;11.50;99.90;;;;;;5018741;28;20065;-70
2021/04/22 01:07:39;;;;;;;13.02;11.52;;;11.40;99.90;;;;;;5019336;28;20022;-71
2021/04/22 01:10:06;;;;;;;12.68;11.48;;;11.30;99.90;;;;;;5017892;28;20037;-71
2021/04/22 01:12:33;;;;;;;16.65;12.93;;;11.30;99.90;;;;;;5017838;28;20109;-71
2021/04/22 01:14:59;;;;;;;13.75;11.88;;;11.30;99.90;;;;;;5007776;28;20033;-70
2021/04/22 01:17:24;;;;;;;13.32;10.63;;;11.20;99.90;;;;;;5014485;28;20381;-70
2021/04/22 01:19:50;;;;;;;12.90;11.30;;;11.20;99.90;;;;;;5016031;28;20021;-70
2021/04/22 01:22:15;;;;;;;14.55;11.85;;;11.20;99.90;;;;;;5015863;28;20037;-71
2021/04/22 01:24:41;;;;;;;13.82;12.27;;;11.10;99.90;;;;;;5016032;28;20029;-70
2021/04/22 01:27:07;;;;;;;17.20;12.43;;;11.10;99.90;;;;;;5015968;28;20022;-71
2021/04/22 01:29:33;;;;;;;13.45;12.05;;;11.00;99.90;;;;;;5016052;28;20018;-71
2021/04/22 01:31:58;;;;;;;14.20;11.27;;;11.00;99.90;;;;;;5016195;28;20080;-71
2021/04/22 01:34:24;;;;;;;15.57;13.02;;;11.00;99.90;;;;;;5023794;28;20468;-70
2021/04/22 01:36:50;;;;;;;14.23;12.82;;;10.90;99.90;;;;;;5009301;28;20026;-70
2021/04/22 01:39:15;;;;;;;13.93;12.40;;;10.80;99.90;;;;;;5008043;28;20021;-71
2021/04/22 01:41:42;;;;;;;16.00;14.27;;;10.70;99.90;;;;;;5015564;28;20113;-71
2021/04/22 01:44:08;;;;;;;15.02;13.45;;;10.60;99.90;;;;;;5015644;28;20025;-71
2021/04/22 01:46:34;;;;;;;15.32;13.50;;;10.70;99.90;;;;;;5015802;28;20684;-70
2021/04/22 01:48:59;;;;;;;15.82;13.48;;;10.70;99.90;;;;;;5009951;28;20030;-70
2021/04/22 01:51:45;;;;;;;14.63;13.13;;;10.70;99.90;;;;;;5013004;28;20030;-71
2021/04/22 01:54:11;;;;;;;17.02;15.43;;;10.70;99.90;;;;;;5014466;28;20030;-70
2021/04/22 01:56:36;;;;;;;16.63;14.88;;;10.70;99.90;;;;;;5015285;28;20021;-69
2021/04/22 01:59:02;;;;;;;16.88;15.10;;;10.60;99.90;;;;;;5015515;28;20022;-71
2021/04/22 02:01:28;;;;;;;16.08;14.45;;;10.60;99.90;;;;;;5015514;28;20030;-69
2021/04/22 02:03:53;;;;;;;17.83;15.98;;;10.90;99.90;;;;;;5015299;28;20049;-71
2021/04/22 02:06:19;;;;;;;16.58;14.85;;;11.10;99.90;;;;;;5015321;28;20081;-70
2021/04/22 02:08:44;;;;;;;17.27;15.32;;;11.20;99.90;;;;;;5015223;28;20033;-70
2021/04/22 02:11:10;;;;;;;19.85;15.98;;;11.20;99.90;;;;;;5015227;28;20101;-70
2021/04/22 02:13:36;;;;;;;18.33;16.42;;;11.20;99.90;;;;;;5013059;28;20493;-70
2021/04/22 02:16:01;;;;;;;20.35;18.10;;;11.00;99.90;;;;;;5009098;28;20030;-71
2021/04/22 02:18:27;;;;;;;20.33;17.88;;;10.70;99.90;;;;;;5015360;28;20018;-70
2021/04/22 02:20:53;;;;;;;19.75;17.73;;;10.60;99.90;;;;;;5014854;28;20026;-69
2021/04/22 02:23:20;;;;;;;25.17;20.65;;;10.50;99.90;;;;;;5019297;28;20084;-70
2021/04/22 02:25:47;;;;;;;21.58;19.13;;;10.40;99.90;;;;;;5020989;28;20469;-70
2021/04/22 02:28:13;;;;;;;22.00;19.00;;;10.30;99.90;;;;;;5020807;28;20057;-70
2021/04/22 02:30:41;;;;;;;20.58;18.55;;;10.20;99.90;;;;;;5017651;28;20537;-71
2021/04/22 02:33:11;;;;;;;21.23;19.00;;;10.20;99.90;;;;;;5017313;28;20037;-72
2021/04/22 02:35:39;;;;;;;21.35;19.08;;;10.20;99.90;;;;;;5015274;28;20045;-71
2021/04/22 02:38:07;;;;;;;23.23;19.30;;;10.20;99.90;;;;;;5015193;28;20489;-70
2021/04/22 02:40:34;;;;;;;22.85;19.67;;;10.10;99.90;;;;;;4996760;28;20038;-70
2021/04/22 02:43:01;;;;;;;29.95;20.20;;;10.10;99.90;;;;;;4995078;28;20030;-70
2021/04/22 02:45:34;;;;;;;24.73;21.02;;;10.10;99.90;;;;;;4995265;28;20065;-70
2021/04/22 02:48:00;;;;;;;23.70;20.20;;;10.10;99.90;;;;;;4995254;28;20080;-70
2021/04/22 02:50:29;;;;;;;24.50;21.92;;;10.20;99.90;;;;;;5005259;28;20034;-70
2021/04/22 02:52:55;;;;;;;24.83;20.90;;;10.10;99.90;;;;;;5008232;28;20033;-72
2021/04/22 02:55:21;;;;;;;25.75;23.00;;;10.20;99.90;;;;;;5015412;28;20022;-69
2021/04/22 02:57:47;;;;;;;24.67;21.98;;;10.20;99.90;;;;;;5015315;28;20022;-70
2021/04/22 03:00:17;;;;;;;25.52;21.10;;;10.20;99.90;;;;;;5014328;28;20022;-72
2021/04/22 03:02:42;;;;;;;26.38;22.88;;;10.20;99.90;;;;;;5015572;28;20450;-70
2021/04/22 03:05:09;;;;;;;24.98;22.27;;;10.20;99.90;;;;;;5015587;28;20069;-71
2021/04/22 03:07:35;;;;;;;25.95;22.95;;;10.10;99.90;;;;;;5017126;28;20084;-70
2021/04/22 03:10:00;;;;;;;26.65;23.77;;;10.10;99.90;;;;;;5016441;28;20033;-72
2021/04/22 03:12:26;;;;;;;31.30;24.20;;;10.10;99.90;;;;;;5015591;28;20032;-71
2021/04/22 03:14:53;;;;;;;26.10;23.27;;;10.10;99.90;;;;;;5002932;28;20371;-71
2021/04/22 03:17:18;;;;;;;26.58;23.63;;;10.10;99.90;;;;;;4995446;28;20053;-70
2021/04/22 03:19:44;;;;;;;29.63;24.02;;;10.10;99.90;;;;;;4995164;28;20716;-69
2021/04/22 03:22:10;;;;;;;28.70;22.65;;;10.10;99.90;;;;;;4995319;28;20114;-70
2021/04/22 03:24:36;;;;;;;26.05;22.92;;;10.10;99.90;;;;;;5006716;28;20030;-71
2021/04/22 03:27:02;;;;;;;27.77;21.70;;;10.00;99.90;;;;;;5010673;28;20030;-70
2021/04/22 03:29:27;;;;;;;25.55;21.77;;;10.00;99.90;;;;;;5013360;28;20030;-70
2021/04/22 03:31:53;;;;;;;22.75;20.38;;;10.00;99.90;;;;;;5014027;28;20544;-72
2021/04/22 03:34:18;;;;;;;23.83;20.55;;;10.00;99.90;;;;;;4997604;28;20083;-71
2021/04/22 03:36:44;;;;;;;26.35;21.88;;;10.00;99.90;;;;;;4994819;28;20050;-71
2021/04/22 03:39:09;;;;;;;24.15;20.13;;;10.00;99.90;;;;;;4994966;28;20399;-71
2021/04/22 03:41:35;;;;;;;25.00;20.00;;;9.90;99.90;;;;;;4994363;28;20453;-72
2021/04/22 03:44:01;;;;;;;25.13;20.90;;;9.90;99.90;;;;;;4994125;28;20457;-70
2021/04/22 03:46:26;;;;;;;21.98;19.60;;;9.90;99.90;;;;;;4997757;28;20033;-71
2021/04/22 03:48:52;;;;;;;23.27;19.40;;;9.90;99.90;;;;;;5005531;28;20022;-71
2021/04/22 03:51:18;;;;;;;21.08;18.52;;;9.90;99.90;;;;;;5011669;28;20025;-71
2021/04/22 03:53:43;;;;;;;22.75;18.42;;;9.90;99.90;;;;;;5004064;28;20030;-71
2021/04/22 03:56:09;;;;;;;21.67;19.02;;;9.90;99.90;;;;;;5013574;28;20045;-70
2021/04/22 03:58:35;;;;;;;21.13;17.20;;;9.90;99.90;;;;;;5005560;28;20018;-71
2021/04/22 04:01:01;;;;;;;18.88;16.95;;;9.80;99.90;;;;;;5013969;28;20018;-72
2021/04/22 04:03:27;;;;;;;21.65;18.50;;;9.80;99.90;;;;;;4996913;28;20449;-70
2021/04/22 04:05:53;;;;;;;19.45;16.90;;;9.70;99.90;;;;;;4994089;28;20058;-71
2021/04/22 04:08:18;;;;;;;19.98;17.88;;;9.60;99.90;;;;;;4995005;28;20023;-70
2021/04/22 04:10:44;;;;;;;20.58;18.42;;;9.60;99.90;;;;;;4993762;28;20042;-71
2021/04/22 04:13:09;;;;;;;24.42;18.30;;;9.50;99.90;;;;;;5006387;28;20022;-71
2021/04/22 04:15:35;;;;;;;20.23;17.60;;;9.40;99.90;;;;;;5005647;28;20102;-71
2021/04/22 04:18:01;;;;;;;22.35;19.63;;;9.40;99.90;;;;;;5013768;28;20112;-71
2021/04/22 04:20:27;;;;;;;23.90;19.45;;;9.40;99.90;;;;;;5015194;28;20018;-71
2021/04/22 04:22:52;;;;;;;22.05;19.58;;;9.30;99.90;;;;;;5025539;28;20025;-70
2021/04/22 04:25:18;;;;;;;25.92;19.05;;;9.20;99.90;;;;;;5031085;28;20048;-69
2021/04/22 04:27:44;;;;;;;29.27;19.08;;;9.20;99.90;;;;;;5026444;28;20184;-70
2021/04/22 04:30:15;;;;;;;24.27;18.35;;;9.20;99.90;;;;;;5012931;28;20027;-71
2021/04/22 04:32:41;;;;;;;24.80;19.33;;;9.20;99.90;;;;;;5031267;28;20045;-70
2021/04/22 04:35:08;;;;;;;23.17;18.90;;;9.20;99.90;;;;;;5035502;28;20030;-70
2021/04/22 04:37:35;;;;;;;23.88;19.25;;;9.20;99.90;;;;;;5031821;28;20030;-69
2021/04/22 04:40:01;;;;;;;27.02;20.20;;;9.20;99.90;;;;;;5030057;28;20050;-71
2021/04/22 04:42:27;;;;;;;21.80;18.75;;;9.20;99.90;;;;;;5021802;28;20034;-71
2021/04/22 04:44:52;;;;;;;23.48;20.40;;;9.20;99.90;;;;;;5019835;28;20033;-71
2021/04/22 04:47:18;;;;;;;22.92;20.42;;;9.20;99.90;;;;;;5007115;28;20041;-71
2021/04/22 04:49:44;;;;;;;25.80;21.13;;;9.20;99.90;;;;;;5013664;28;20018;-72
2021/04/22 04:52:09;;;;;;;23.75;19.80;;;9.20;99.90;;;;;;5017364;28;20022;-71
2021/04/22 04:54:35;;;;;;;23.88;19.10;;;9.20;99.90;;;;;;5025892;28;20393;-71
2021/04/22 04:57:01;;;;;;;25.08;20.27;;;9.20;99.90;;;;;;5021910;28;20025;-70
2021/04/22 04:59:26;;;;;;;23.83;20.10;;;9.30;99.90;;;;;;5018204;28;20037;-72
2021/04/22 05:01:52;;;;;;;22.65;19.80;;;9.30;99.90;;;;;;5017853;28;20481;-72
2021/04/22 05:04:17;;;;;;;25.90;20.13;;;9.30;99.90;;;;;;5016861;28;20046;-71
2021/04/22 05:06:43;;;;;;;30.02;19.77;;;9.40;99.90;;;;;;5012455;28;20026;-71
2021/04/22 05:09:09;;;;;;;25.25;21.25;;;9.40;99.90;;;;;;5017856;28;20021;-71
2021/04/22 05:11:34;;;;;;;21.42;19.20;;;9.50;99.90;;;;;;5017495;28;20029;-71
2021/04/22 05:14:00;;;;;;;21.00;18.70;;;9.50;99.90;;;;;;5016840;28;20022;-71
2021/04/22 05:16:25;;;;;;;20.70;18.20;;;9.40;99.90;;;;;;5000325;28;20026;-72
2021/04/22 05:18:51;;;;;;;22.42;19.98;;;9.50;99.90;;;;;;5007924;28;20507;-72
2021/04/22 05:21:16;;;;;;;19.83;17.73;;;9.50;99.90;;;;;;5000756;28;20053;-72
2021/04/22 05:23:42;;;;;;;22.40;18.27;;;9.60;99.90;;;;;;5009357;28;20026;-71
2021/04/22 05:26:08;;;;;;;21.25;18.35;;;9.60;99.90;;;;;;5002470;28;20587;-71
2021/04/22 05:28:34;;;;;;;19.95;17.85;;;9.70;99.90;;;;;;4997634;28;20026;-71
2021/04/22 05:30:59;;;;;;;24.35;17.50;;;9.70;99.90;;;;;;4997656;28;20030;-71
2021/04/22 05:33:25;;;;;;;19.77;17.23;;;9.80;99.90;;;;;;4999029;28;20034;-71
2021/04/22 05:35:50;;;;;;;20.92;15.98;;;9.80;99.90;;;;;;4999397;28;20022;-72
2021/04/22 05:38:16;;;;;;;21.33;16.88;;;9.80;99.90;;;;;;5006827;28;20109;-72
2021/04/22 05:40:42;;;;;;;22.00;17.02;;;9.90;99.90;;;;;;5007361;28;20033;-71
2021/04/22 05:43:08;;;;;;;18.42;16.60;;;9.90;99.90;;;;;;4997417;28;20498;-70
2021/04/22 05:45:35;;;;;;;25.38;16.98;;;10.00;99.90;;;;;;5006662;28;20037;-72
2021/04/22 05:48:01;;;;;;;19.33;16.25;;;10.00;99.90;;;;;;5016396;28;20796;-70
2021/04/22 05:50:27;;;;;;;21.02;17.38;;;10.00;99.90;;;;;;5018085;28;20029;-71
2021/04/22 05:52:52;;;;;;;22.40;17.38;;;10.00;99.90;;;;;;5014300;28;20034;-72
2021/04/22 05:55:18;;;;;;;18.10;16.00;;;10.00;99.90;;;;;;5012150;28;20068;-71
2021/04/22 05:57:44;;;;;;;18.67;15.35;;;9.90;99.90;;;;;;5018396;28;20026;-71
2021/04/22 06:00:13;;;;;;;24.92;18.67;;;9.70;99.90;;;;;;5018822;28;20370;-71
2021/04/22 06:02:38;;;;;;;21.02;17.52;;;9.70;99.90;;;;;;5016545;28;20021;-72
2021/04/22 06:05:05;;;;;;;24.75;18.55;;;9.60;99.90;;;;;;5016148;28;20113;-73
2021/04/22 06:07:30;;;;;;;21.38;18.25;;;9.60;99.90;;;;;;5016119;28;20022;-71
2021/04/22 06:09:56;;;;;;;21.73;17.77;;;9.50;99.90;;;;;;5015523;28;20477;-71
2021/04/22 06:12:22;;;;;;;24.23;18.83;;;9.40;99.90;;;;;;5012851;28;20032;-71
2021/04/22 06:14:47;;;;;;;21.40;18.02;;;9.40;99.90;;;;;;5012267;28;20026;-73
2021/04/22 06:17:13;;;;;;;22.48;18.05;;;9.30;99.90;;;;;;5006487;28;20086;-72
2021/04/22 06:19:38;;;;;;;25.77;18.92;;;9.50;99.90;;;;;;5016066;28;20080;-72
2021/04/22 06:22:04;;;;;;;23.42;17.05;;;9.50;99.90;;;;;;5015670;28;20030;-71
2021/04/22 06:24:29;;;;;;;24.17;19.45;;;9.40;99.90;;;;;;5015813;28;20413;-72
2021/04/22 06:26:56;;;;;;;24.58;18.58;;;9.40;99.90;;;;;;5015544;28;20065;-71
2021/04/22 06:29:21;;;;;;;23.17;17.38;;;9.40;99.90;;;;;;5015109;28;20109;-71
2021/04/22 06:31:48;;;;;;;22.60;16.90;;;9.40;99.90;;;;;;4995705;28;20493;-72
2021/04/22 06:34:14;;;;;;;18.10;16.08;;;9.40;99.90;;;;;;4995803;28;20045;-71
2021/04/22 06:36:40;;;;;;;22.95;17.33;;;9.30;99.90;;;;;;4995993;28;20486;-71
2021/04/22 06:39:06;;;;;;;23.83;16.42;;;9.30;99.90;;;;;;4996045;28;20030;-71
2021/04/22 06:41:33;;;;;;;22.40;16.90;;;9.40;99.90;;;;;;4996416;28;20032;-72
2021/04/22 06:43:58;;;;;;;21.50;16.42;;;9.60;99.90;;;;;;5007281;28;20069;-72
2021/04/22 06:46:24;;;;;;;26.27;17.48;;;9.70;99.90;;;;;;5012574;28;20033;-72
2021/04/22 06:48:51;;;;;;;24.10;17.27;;;9.80;99.90;;;;;;5019286;28;20321;-71
2021/04/22 06:51:17;;;;;;;23.08;15.98;;;9.80;99.90;;;;;;5015817;28;20030;-72
2021/04/22 06:53:43;;;;;;;31.38;18.65;;;9.60;99.90;;;;;;5011946;28;20065;-72
2021/04/22 06:56:08;;;;;;;17.90;15.13;;;9.50;99.90;;;;;;4996117;28;20102;-72
2021/04/22 06:58:34;;;;;;;18.30;15.32;;;9.70;99.90;;;;;;4994439;28;20037;-71
2021/04/22 07:01:00;;;;;;;19.35;16.17;;;9.80;99.90;;;;;;5002701;28;20029;-72
2021/04/22 07:03:26;;;;;;;19.85;16.50;;;9.70;99.90;;;;;;5017559;28;20076;-72
2021/04/22 07:05:51;;;;;;;25.58;16.10;;;9.80;99.90;;;;;;5017214;28;20136;-72
2021/04/22 07:08:17;;;;;;;19.58;15.18;;;9.90;99.90;;;;;;5019173;28;20022;-71
2021/04/22 07:10:43;;;;;;;22.65;13.85;;;10.00;99.90;;;;;;5018544;28;20028;-72
2021/04/22 07:13:10;;;;;;;19.30;14.32;;;10.00;99.90;;;;;;5011958;28;20110;-73
2021/04/22 07:15:39;;;;;;;22.08;15.95;;;10.20;99.90;;;;;;5009864;28;20037;-71
2021/04/22 07:18:06;;;;;;;17.13;14.35;;;10.40;99.90;;;;;;5016549;28;20025;-72
2021/04/22 07:20:32;;;;;;;21.85;13.80;;;10.80;99.90;;;;;;5015033;28;20029;-72
2021/04/22 07:22:59;;;;;;;17.77;13.63;;;11.00;99.90;;;;;;5014842;28;20040;-71
2021/04/22 07:25:28;;;;;;;17.77;13.80;;;11.00;99.90;;;;;;5017174;28;20067;-71
2021/04/22 07:27:53;;;;;;;21.65;14.35;;;11.00;99.90;;;;;;5016354;28;20112;-72
2021/04/22 07:30:20;;;;;;;17.80;12.65;;;11.10;99.90;;;;;;5017896;28;20050;-72
2021/04/22 07:32:46;;;;;;;16.98;13.63;;;10.80;99.90;;;;;;5009734;28;20057;-71
2021/04/22 07:35:12;;;;;;;16.75;13.15;;;10.60;99.90;;;;;;5017504;28;20022;-72
2021/04/22 07:37:39;;;;;;;19.55;13.27;;;10.60;99.90;;;;;;5013660;28;20073;-72
2021/04/22 07:40:07;;;;;;;21.88;14.00;;;10.80;99.90;;;;;;5007553;28;20117;-72
2021/04/22 07:42:33;;;;;;;21.55;14.13;;;10.80;99.90;;;;;;5010607;28;20037;-71
2021/04/22 07:44:59;;;;;;;16.23;12.65;;;11.10;99.90;;;;;;4994249;28;20080;-72
2021/04/22 07:47:24;;;;;;;15.23;12.73;;;11.10;82.60;;;;;;4995102;28;20030;-73
2021/04/22 07:49:50;;;;;;;16.13;12.57;;;11.30;40.00;;;;;;5006600;28;20097;-73
2021/04/22 07:52:16;;;;;;;16.13;11.98;;;11.40;1.00;;;;;;5008955;28;20018;-73
2021/04/22 07:54:42;;;;;;;20.63;12.90;;;11.70;1.00;;;;;;5005442;28;20026;-72
2021/04/22 07:57:08;;;;;;;16.48;11.10;;;11.80;1.00;;;;;;5014210;28;20022;-71
2021/04/22 07:59:34;;;;;;;14.75;10.88;;;11.80;1.00;;;;;;5014126;28;20257;-72
2021/04/22 08:01:59;;;;;;;16.92;11.73;;;11.90;1.00;;;;;;5013791;28;20057;-72
2021/04/22 08:04:25;;;;;;;17.55;12.02;;;11.80;1.00;;;;;;5007167;28;20048;-72
2021/04/22 08:06:50;;;;;;;18.75;11.98;;;11.00;1.00;;;;;;5013414;28;20026;-72
2021/04/22 08:09:16;;;;;;;18.60;12.50;;;11.20;1.00;;;;;;5014191;28;20074;-72
2021/04/22 08:11:42;;;;;;;20.38;12.90;;;11.00;1.00;;;;;;4996325;28;20101;-72
2021/04/22 08:14:08;;;;;;;13.77;10.82;;;11.00;1.00;;;;;;5011572;28;20044;-73
2021/04/22 08:16:34;;;;;;;17.60;11.93;;;11.00;1.00;;;;;;4994757;28;20114;-72
2021/04/22 08:19:00;;;;;;;15.30;11.35;;;11.30;1.00;;;;;;5010267;28;20168;-73
2021/04/22 08:21:26;;;;;;;23.42;14.23;;;11.50;1.00;;;;;;5012327;28;20066;-72
2021/04/22 08:23:51;;;;;;;16.33;10.82;;;11.50;1.00;;;;;;5006496;28;20050;-73
2021/04/22 08:26:19;;;;;;;13.27;10.13;;;11.60;99.90;;;;;;5014437;28;20484;-73
2021/04/22 08:28:46;;;;;;;13.63;9.40;;;12.10;99.90;;;;;;5014669;28;20037;-71
2021/04/22 08:31:23;;;;;;;11.43;10.23;;;12.30;99.90;;;;;;5014567;28;20141;-72
2021/04/22 08:33:52;;;;;;;14.50;9.85;;;12.60;1.00;;;;;;5013913;28;20653;-72
2021/04/22 08:36:19;;;;;;;13.95;9.80;;;12.80;99.90;;;;;;5012225;28;20018;-71
2021/04/22 08:38:46;;;;;;;12.65;8.82;;;12.90;1.00;;;;;;5006288;28;20053;-72
2021/04/22 08:41:12;;;;;;;14.63;10.68;;;12.70;99.90;;;;;;5012359;28;20529;-72
2021/04/22 08:43:38;;;;;;;17.70;10.38;;;12.30;1.00;;;;;;5012153;28;20117;-71
2021/04/22 08:46:04;;;;;;;14.68;10.18;;;12.10;99.90;;;;;;5005928;28;20026;-73
2021/04/22 08:48:31;;;;;;;11.35;8.95;;;12.30;1.00;;;;;;4996785;28;20076;-71
2021/04/22 08:50:57;;;;;;;14.13;9.05;;;12.40;99.90;;;;;;5004348;28;20503;-72
2021/04/22 08:53:29;;;;;;;14.73;9.35;;;12.00;99.90;;;;;;5005828;28;20030;-72
2021/04/22 08:55:55;;;;;;;13.57;8.70;;;11.90;99.90;;;;;;5018580;28;20076;-73
2021/04/22 08:58:20;;;;;;;12.05;8.90;;;12.10;99.90;;;;;;5015792;28;20083;-73
2021/04/22 09:00:47;;;;;;;16.67;9.63;;;12.30;78.90;;;;;;5024060;28;20488;-71
2021/04/22 09:03:13;;;;;;;13.05;9.50;;;12.70;99.90;;;;;;5015392;28;20098;-72
2021/04/22 09:05:39;;;;;;;16.67;9.52;;;13.00;1.00;;;;;;5010439;28;20030;-73
2021/04/22 09:08:05;;;;;;;18.17;8.82;;;12.50;99.90;;;;;;5018697;28;20037;-72
2021/04/22 09:10:31;;;;;;;14.27;7.75;;;12.50;1.00;;;;;;5028998;28;20057;-71
2021/04/22 09:13:26;;;;;;;13.55;9.32;;;12.80;99.90;;;;;;5031513;28;20021;-71
2021/04/22 09:16:01;;;;;;;12.38;9.18;;;13.00;1.00;;;;;;5013410;28;20286;-72
2021/04/22 09:18:27;;;;;;;16.92;11.00;;;12.60;99.90;;;;;;5023111;28;20106;-71
2021/04/22 09:20:56;;;;;;;13.25;9.35;;;13.00;99.90;;;;;;5031683;28;20026;-72
2021/04/22 09:23:27;;;;;;;10.18;8.60;;;12.90;99.90;;;;;;5025785;28;20021;-72
2021/04/22 09:25:55;;;;;;;;;;;12.60;99.90;;;;;;5033839;28;20034;-72
2021/04/22 09:28:31;;;;;;;13.18;8.50;;;12.60;99.90;;;;;;5016600;28;19912;-70
2021/04/22 09:30:57;;;;;;;12.02;8.13;;;13.10;99.90;;;;;;5017364;28;20034;-72
2021/04/22 09:33:28;;;;;;;11.63;8.40;;;13.20;99.90;;;;;;5017033;28;20037;-72
2021/04/22 09:36:07;;;;;;;14.02;7.95;;;12.50;41.80;;;;;;5016545;28;20120;-71
2021/04/22 09:38:35;;;;;;;8.65;7.70;;;12.40;1.00;;;;;;5006038;28;20470;-72
2021/04/22 09:41:27;;;;;;;11.25;7.47;;;12.20;96.00;;;;;;4999616;28;20036;-71
2021/04/22 09:44:05;;;;;;;9.27;7.22;;;12.40;1.00;;;;;;5010656;28;20134;-71
2021/04/22 09:46:31;;;;;;;20.02;7.90;;;12.30;1.00;;;;;;5006883;28;20029;-71
2021/04/22 09:49:07;;;;;;;17.63;7.55;;;12.30;99.90;;;;;;5004860;28;20022;-70
2021/04/22 09:51:33;;;;;;;13.27;7.15;;;12.70;1.00;;;;;;5011643;28;20080;-71
2021/04/22 09:54:05;;;;;;;11.32;5.95;;;13.00;55.60;;;;;;5002866;28;20029;-71
2021/04/22 09:56:51;;;;;;;9.05;5.90;;;12.40;1.00;;;;;;5004388;28;20393;-70
2021/04/22 09:59:19;;;;;;;11.73;6.25;;;12.40;99.90;;;;;;5012536;28;20033;-70
2021/04/22 10:01:46;;;;;;;7.35;6.15;;;12.80;99.90;;;;;;5016310;28;20109;-71
2021/04/22 10:04:13;;;;;;;10.48;6.47;;;12.80;99.90;;;;;;5014328;28;20068;-71
2021/04/22 10:06:42;;;;;;;14.07;5.57;;;12.70;1.00;;;;;;5007279;28;20030;-72
2021/04/22 10:09:09;;;;;;;8.77;5.22;;;12.50;99.90;;;;;;4997906;28;20019;-71
2021/04/22 10:11:50;;;;;;;9.07;5.80;;;12.60;13.10;;;;;;5001380;28;20030;-71
2021/04/22 10:14:28;;;;;;;7.93;5.70;;;12.90;1.00;;;;;;4997452;28;20022;-70
2021/04/22 10:16:53;;;;;;;11.63;5.03;;;13.50;99.90;;;;;;4996245;28;20105;-71
2021/04/22 10:19:19;;;;;;;11.85;5.10;;;13.70;1.00;;;;;;4996873;28;20451;-71
2021/04/22 10:21:45;;;;;;;7.30;4.70;;;13.30;1.00;;;;;;4997436;28;20312;-71
2021/04/22 10:24:13;;;;;;;8.52;5.05;;;13.10;1.00;;;;;;4996636;28;20030;-71
2021/04/22 10:26:40;;;;;;;9.45;5.63;;;12.80;1.00;;;;;;5014716;23;20038;-74
2021/04/22 10:29:07;;;;;;;12.90;4.78;;;13.30;1.00;;;;;;5011260;28;20396;-73
2021/04/22 10:31:32;;;;;;;11.18;5.25;;;13.20;99.90;;;;;;5006240;28;20414;-73
2021/04/22 10:33:59;;;;;;;9.75;4.57;;;12.60;99.90;;;;;;4989953;28;20031;-72
2021/04/22 10:36:25;;;;;;;8.57;4.13;;;13.00;99.90;;;;;;4974323;28;20019;-71
2021/04/22 10:38:52;;;;;;;6.60;4.13;;;13.20;99.90;;;;;;4991537;28;20018;-72
2021/04/22 10:41:19;;;;;;;9.63;4.35;;;13.20;99.90;;;;;;4994768;28;20026;-73
2021/04/22 10:43:46;;;;;;;10.15;4.05;;;12.90;99.90;;;;;;4993417;28;20033;-72
2021/04/22 10:46:12;;;;;;;7.00;3.50;;;13.40;99.90;;;;;;4994583;28;20027;-72
2021/04/22 10:48:38;;;;;;;10.18;3.55;;;13.90;99.90;;;;;;4994708;28;20026;-72
2021/04/22 10:51:05;;;;;;;9.88;3.88;;;13.80;99.90;;;;;;4994410;28;20093;-72
2021/04/22 10:53:37;;;;;;;5.72;3.40;;;14.00;99.90;;;;;;4994954;28;20058;-72
2021/04/22 10:56:03;;;;;;;8.00;3.17;;;13.20;99.90;;;;;;4995087;28;20422;-73
2021/04/22 10:58:35;;;;;;;4.25;2.88;;;13.50;99.90;;;;;;4990858;28;20113;-73
2021/04/22 11:01:13;;;;;;;4.70;3.28;;;13.80;99.90;;;;;;4995143;28;20067;-73
2021/04/22 11:03:42;;;;;;;4.45;2.75;;;13.40;99.90;;;;;;4990443;28;20034;-73
2021/04/22 11:06:13;;;;;;;4.15;2.42;;;13.50;99.90;;;;;;4979412;28;20022;-73
2021/04/22 11:08:42;;;;;;;4.63;2.40;;;14.20;98.50;;;;;;4974963;28;20038;-73
2021/04/22 11:11:27;;;;;;;3.90;2.10;;;14.10;79.90;;;;;;4974519;28;20111;-73
2021/04/22 11:14:06;;;;;;;6.65;2.55;;;14.10;62.30;;;;;;4987106;28;20027;-71
2021/04/22 11:16:34;;;;;;;5.50;2.90;;;13.80;66.90;;;;;;4983984;28;20526;-73
2021/04/22 11:19:00;;;;;;;4.57;2.50;;;13.80;51.30;;;;;;4999769;28;20086;-72
2021/04/22 11:21:36;;;;;;;5.82;2.70;;;13.80;51.30;;;;;;4988878;28;20034;-72
2021/04/22 11:24:03;;;;;;;4.78;2.35;;;13.90;45.40;;;;;;4988609;28;20039;-72
2021/04/22 11:26:35;;;;;;;2.97;2.22;;;14.10;36.50;;;;;;4990685;28;20034;-72
2021/04/22 11:29:10;;;;;;;5.95;2.75;;;14.40;24.30;;;;;;4995141;28;20040;-71
2021/04/22 11:31:48;;;;;;;5.07;2.72;;;14.50;27.10;;;;;;4994258;28;20026;-71
2021/04/22 11:34:14;;;;;;;8.55;4.22;;;14.40;28.40;;;;;;4992563;28;20084;-72
2021/04/22 11:36:48;;;;;;;7.28;3.05;;;14.20;30.20;;;;;;4986334;28;20458;-73
2021/04/22 11:39:14;;;;;;;5.53;2.75;;;14.00;26.80;;;;;;4994081;28;20466;-73
2021/04/22 11:41:59;;;;;;;8.65;2.72;;;14.40;24.20;;;;;;4993279;28;20042;-71
2021/04/22 11:44:54;;;;;;;4.07;2.47;;;14.50;21.70;;;;;;4992253;28;20018;-72
2021/04/22 11:47:21;;;;;;;3.72;2.75;;;14.30;19.40;;;;;;4977486;28;20337;-74
2021/04/22 11:50:00;;;;;;;4.95;3.00;;;14.30;19.80;;;;;;4993032;28;20084;-72
2021/04/22 11:52:25;;;;;;;6.10;2.50;;;14.00;18.10;;;;;;4993237;28;20434;-72
2021/04/22 11:54:51;;;;;;;4.32;2.50;;;14.00;15.20;;;;;;4993455;28;20110;-73
2021/04/22 11:57:17;;;;;;;5.13;2.30;;;14.30;14.00;;;;;;4993937;28;20466;-73
2021/04/22 11:59:51;;;;;;;5.57;2.53;;;14.40;10.60;;;;;;4991521;28;20077;-72
2021/04/22 12:02:17;;;;;;;6.65;2.97;;;14.80;10.00;;;;;;4990127;28;20065;-73
2021/04/22 12:04:47;;;;;;;5.35;3.03;;;14.10;10.20;;;;;;4985355;28;20030;-73
2021/04/22 12:07:15;;;;;;;6.22;2.75;;;14.40;11.80;;;;;;4991579;28;20034;-71
2021/04/22 12:09:43;;;;;;;7.43;3.15;;;14.30;12.80;;;;;;5000132;28;20045;-72
2021/04/22 12:12:12;;;;;;;6.57;2.70;;;14.70;15.90;;;;;;5000874;28;20054;-74
2021/04/22 12:14:39;;;;;;;12.20;2.70;;;14.40;16.40;;;;;;4982135;28;20029;-72
2021/04/22 12:17:05;;;;;;;5.63;2.70;;;14.60;14.40;;;;;;4996421;28;20015;-72
2021/04/22 12:19:31;;;;;;;4.18;3.00;;;14.60;16.80;;;;;;4996431;28;20034;-73
2021/04/22 12:22:01;;;;;;;7.30;3.40;;;15.00;19.80;;;;;;4993578;28;20275;-73
2021/04/22 12:24:29;;;;;;;7.95;3.35;;;15.10;20.80;;;;;;4985091;28;20038;-74
2021/04/22 12:26:55;;;;;;;8.27;3.13;;;15.10;22.60;;;;;;4987221;28;20041;-73
2021/04/22 12:29:21;;;;;;;4.75;3.13;;;14.90;21.00;;;;;;4995311;28;20026;-72
2021/04/22 12:31:57;;;;;;;5.95;3.15;;;15.30;20.50;;;;;;4983916;28;20023;-73
2021/04/22 12:34:29;;;;;;;7.97;3.47;;;14.60;18.20;;;;;;4975936;28;20118;-73
2021/04/22 12:37:05;;;;;;;5.75;3.28;;;14.40;20.10;;;;;;4994048;28;20022;-74
2021/04/22 12:39:38;;;;;;;7.47;3.03;;;14.80;21.30;;;;;;4995847;28;20158;-73